createdAt,value
2022-08-03T00:01:48.649Z,3.90
2022-08-03T00:04:15.129Z,3.72
2022-08-03T00:06:41.666Z,3.63
2022-08-03T00:09:08.491Z,3.85
2022-08-03T00:11:35.344Z,3.97
2022-08-03T00:14:02.084Z,4.00
2022-08-03T00:16:28.516Z,4.00
2022-08-03T00:18:54.980Z,4.00
2022-08-03T00:21:21.365Z,3.70
2022-08-03T00:23:52.500Z,3.75
2022-08-03T00:26:20.623Z,4.00
2022-08-03T00:28:47.469Z,4.00
2022-08-03T00:31:14.118Z,4.20
2022-08-03T00:33:58.431Z,4.13
2022-08-03T00:36:26.440Z,4.22
2022-08-03T00:38:52.865Z,4.07
2022-08-03T00:41:19.333Z,3.90
2022-08-03T00:43:47.395Z,4.50
2022-08-03T00:46:17.732Z,3.70
2022-08-03T00:48:47.221Z,4.22
2022-08-03T00:51:13.821Z,4.03
2022-08-03T00:53:40.796Z,4.32
2022-08-03T00:56:07.260Z,4.40
2022-08-03T00:58:33.693Z,3.75
2022-08-03T01:01:00.245Z,3.97
2022-08-03T01:03:26.713Z,4.00
2022-08-03T01:05:58.113Z,4.00
2022-08-03T01:08:41.515Z,4.28
2022-08-03T01:11:07.957Z,4.10
2022-08-03T01:14:03.814Z,3.95
2022-08-03T01:16:35.898Z,4.00
2022-08-03T01:19:34.471Z,3.80
2022-08-03T01:22:39.955Z,3.90
2022-08-03T01:25:14.520Z,3.53
2022-08-03T01:27:59.680Z,4.00
2022-08-03T01:30:30.828Z,4.10
2022-08-03T01:33:08.064Z,3.80
2022-08-03T01:35:48.518Z,3.50
2022-08-03T01:38:27.076Z,3.70
2022-08-03T01:40:54.820Z,3.58
2022-08-03T01:43:55.138Z,4.20
2022-08-03T01:46:15.789Z,3.30
2022-08-03T01:48:43.268Z,3.47
2022-08-03T01:51:10.720Z,3.42
2022-08-03T01:53:39.923Z,3.63
2022-08-03T01:56:06.832Z,3.55
2022-08-03T01:58:35.933Z,3.53
2022-08-03T02:01:03.769Z,3.38
2022-08-03T02:03:33.927Z,3.97
2022-08-03T02:07:00.420Z,3.55
2022-08-03T02:08:49.786Z,3.63
2022-08-03T02:11:16.512Z,3.30
2022-08-03T02:13:44.565Z,3.45
2022-08-03T02:16:12.324Z,3.72
2022-08-03T02:18:40.139Z,3.50
2022-08-03T02:21:11.027Z,3.63
2022-08-03T02:23:38.641Z,3.10
2022-08-03T02:26:09.251Z,3.58
2022-08-03T02:28:38.550Z,3.90
2022-08-03T02:31:11.530Z,3.58
2022-08-03T02:33:42.663Z,3.80
2022-08-03T02:36:11.401Z,3.65
2022-08-03T02:38:42.264Z,3.70
2022-08-03T02:41:15.280Z,3.80
2022-08-03T02:44:06.558Z,3.30
2022-08-03T02:46:34.466Z,3.63
2022-08-03T02:49:41.421Z,3.42
2022-08-03T02:51:52.237Z,4.03
2022-08-03T02:54:20.773Z,3.88
2022-08-03T02:56:48.654Z,4.00
2022-08-03T02:59:17.145Z,4.25
2022-08-03T03:01:44.852Z,3.70
2022-08-03T03:04:11.696Z,3.67
2022-08-03T03:06:40.268Z,4.05
2022-08-03T03:09:07.736Z,4.22
2022-08-03T03:11:38.059Z,4.20
2022-08-03T03:14:05.543Z,4.32
2022-08-03T03:16:36.285Z,4.25
2022-08-03T03:19:03.210Z,4.40
2022-08-03T03:21:31.176Z,4.82
2022-08-03T03:23:58.378Z,4.90
2022-08-03T03:26:24.785Z,4.32
2022-08-03T03:28:51.431Z,4.80
2022-08-03T03:31:17.928Z,4.47
2022-08-03T03:33:44.701Z,5.07
2022-08-03T03:36:11.193Z,4.38
2022-08-03T03:38:37.613Z,5.20
2022-08-03T03:41:05.808Z,4.60
2022-08-03T03:43:32.244Z,4.93
2022-08-03T03:45:59.317Z,5.00
2022-08-03T03:48:26.260Z,4.93
2022-08-03T03:50:52.997Z,5.38
2022-08-03T03:53:19.907Z,4.72
2022-08-03T03:55:59.418Z,4.57
2022-08-03T03:58:30.124Z,5.15
2022-08-03T04:00:56.913Z,4.90
2022-08-03T04:03:23.577Z,4.68
2022-08-03T04:06:08.344Z,5.15
2022-08-03T04:08:53.236Z,4.90
2022-08-03T04:11:29.134Z,4.47
2022-08-03T04:14:10.770Z,5.00
2022-08-03T04:16:43.822Z,4.80
2022-08-03T04:19:22.712Z,5.25
2022-08-03T04:21:52.729Z,5.05
2022-08-03T04:24:20.491Z,5.45
2022-08-03T04:26:52.592Z,5.75
2022-08-03T04:29:20.749Z,5.45
2022-08-03T04:31:48.992Z,4.75
2022-08-03T04:34:15.995Z,5.00
2022-08-03T04:36:49.337Z,5.05
2022-08-03T04:39:25.616Z,5.32
2022-08-03T04:42:07.205Z,5.17
2022-08-03T04:44:37.920Z,5.10
2022-08-03T04:47:04.342Z,4.90
2022-08-03T04:49:31.685Z,4.60
2022-08-03T04:51:58.556Z,5.50
2022-08-03T04:54:25.029Z,5.00
2022-08-03T04:56:51.432Z,4.90
2022-08-03T04:59:17.890Z,4.80
2022-08-03T05:01:44.414Z,5.10
2022-08-03T05:04:10.859Z,4.45
2022-08-03T05:06:37.337Z,4.45
2022-08-03T05:09:14.398Z,4.50
2022-08-03T05:11:42.035Z,4.35
2022-08-03T05:14:08.498Z,5.25
2022-08-03T05:16:34.934Z,4.70
2022-08-03T05:19:01.302Z,4.45
2022-08-03T05:21:51.904Z,4.60
2022-08-03T05:24:14.109Z,5.03
2022-08-03T05:26:40.535Z,4.60
2022-08-03T05:29:06.992Z,4.90
2022-08-03T05:31:33.346Z,4.30
2022-08-03T05:33:59.736Z,4.65
2022-08-03T05:36:26.138Z,4.78
2022-08-03T05:38:52.550Z,4.70
2022-08-03T05:41:20.278Z,3.95
2022-08-03T05:43:47.350Z,4.13
2022-08-03T05:46:13.833Z,4.60
2022-08-03T05:48:41.048Z,4.43
2022-08-03T05:51:11.328Z,4.03
2022-08-03T05:53:38.571Z,3.83
2022-08-03T05:56:13.907Z,4.13
2022-08-03T05:58:41.846Z,3.63
2022-08-03T06:01:08.300Z,4.20
2022-08-03T06:03:34.755Z,4.70
2022-08-03T06:06:01.200Z,4.07
2022-08-03T06:08:27.775Z,4.37
2022-08-03T06:10:54.160Z,4.22
2022-08-03T06:13:21.986Z,4.20
2022-08-03T06:15:48.435Z,3.92
2022-08-03T06:18:14.851Z,4.18
2022-08-03T06:20:41.206Z,4.00
2022-08-03T06:23:07.970Z,4.03
2022-08-03T06:25:42.751Z,3.75
2022-08-03T06:28:14.986Z,4.20
2022-08-03T06:30:50.349Z,4.28
2022-08-03T06:33:16.744Z,4.47
2022-08-03T06:35:43.304Z,3.60
2022-08-03T06:38:12.880Z,3.83
2022-08-03T06:40:42.130Z,3.88
2022-08-03T06:43:12.368Z,3.40
2022-08-03T06:45:39.347Z,3.55
2022-08-03T06:48:07.918Z,3.85
2022-08-03T06:50:35.786Z,3.67
2022-08-03T06:53:03.132Z,4.15
2022-08-03T06:55:30.103Z,3.80
2022-08-03T06:57:59.769Z,3.80
2022-08-03T07:00:30.795Z,3.88
2022-08-03T07:02:58.449Z,3.53
2022-08-03T07:05:25.251Z,3.35
2022-08-03T07:07:55.632Z,3.60
2022-08-03T07:10:22.011Z,3.40
2022-08-03T07:12:52.651Z,3.40
2022-08-03T07:15:55.038Z,3.40
2022-08-03T07:18:09.624Z,3.85
2022-08-03T07:20:36.010Z,3.70
2022-08-03T07:23:02.405Z,3.50
2022-08-03T07:25:28.837Z,3.80
2022-08-03T07:27:55.262Z,3.28
2022-08-03T07:30:23.457Z,3.42
2022-08-03T07:32:50.809Z,4.05
2022-08-03T07:35:24.498Z,4.20
2022-08-03T07:37:54.705Z,4.38
2022-08-03T07:40:22.229Z,4.03
2022-08-03T07:42:48.750Z,3.75
2022-08-03T07:45:21.397Z,4.03
2022-08-03T07:47:53.416Z,3.63
2022-08-03T07:50:20.505Z,3.78
2022-08-03T07:52:50.054Z,3.42
2022-08-03T07:55:18.313Z,3.75
2022-08-03T07:57:44.811Z,3.83
2022-08-03T08:00:19.469Z,4.22
2022-08-03T08:02:46.274Z,3.40
2022-08-03T08:05:12.774Z,3.70
2022-08-03T08:07:39.739Z,3.92
2022-08-03T08:10:08.097Z,4.70
2022-08-03T08:12:34.530Z,3.90
2022-08-03T08:15:01.252Z,3.40
2022-08-03T08:17:27.806Z,4.32
2022-08-03T08:19:54.279Z,4.18
2022-08-03T08:22:30.745Z,4.50
2022-08-03T08:25:01.221Z,4.63
2022-08-03T08:27:28.098Z,4.53
2022-08-03T08:30:19.423Z,3.92
2022-08-03T08:32:46.611Z,5.35
2022-08-03T08:35:13.309Z,4.87
2022-08-03T08:37:40.482Z,4.60
2022-08-03T08:40:08.544Z,5.03
2022-08-03T08:42:40.254Z,5.68
2022-08-03T08:45:09.935Z,4.60
2022-08-03T08:47:50.928Z,4.70
2022-08-03T08:50:27.117Z,4.82
2022-08-03T08:52:59.181Z,5.05
2022-08-03T08:55:26.071Z,4.57
2022-08-03T08:58:09.657Z,5.03
2022-08-03T09:00:36.195Z,5.50
2022-08-03T09:03:02.720Z,5.10
2022-08-03T09:05:54.847Z,5.00
2022-08-03T09:08:19.275Z,5.95
2022-08-03T09:10:45.733Z,4.80
2022-08-03T09:13:12.194Z,4.97
2022-08-03T09:15:39.099Z,5.35
2022-08-03T09:18:05.630Z,4.97
2022-08-03T09:20:34.443Z,5.13
2022-08-03T09:23:09.681Z,5.55
2022-08-03T09:25:57.262Z,5.20
2022-08-03T09:29:00.519Z,4.68
2022-08-03T09:31:36.120Z,4.50
2022-08-03T09:34:04.781Z,4.85
2022-08-03T09:36:46.181Z,5.65
2022-08-03T09:39:41.161Z,4.83
2022-08-03T09:42:14.803Z,5.35
2022-08-03T09:44:46.809Z,4.63
2022-08-03T09:47:15.673Z,4.57
2022-08-03T09:49:55.909Z,5.45
2022-08-03T09:52:38.015Z,4.60
2022-08-03T09:56:30.544Z,4.70
2022-08-03T09:58:06.384Z,4.55
2022-08-03T10:00:32.823Z,4.60
2022-08-03T10:03:05.028Z,4.45
2022-08-03T10:05:33.062Z,4.50
2022-08-03T10:07:59.481Z,4.68
2022-08-03T10:10:30.937Z,4.82
2022-08-03T10:12:59.973Z,4.72
2022-08-03T10:16:21.969Z,5.03
2022-08-03T10:18:13.791Z,5.00
2022-08-03T10:21:03.928Z,5.25
2022-08-03T10:23:34.931Z,4.90
2022-08-03T10:26:04.214Z,5.10
2022-08-03T10:28:40.380Z,5.00
2022-08-03T10:31:12.607Z,5.93
2022-08-03T10:33:49.782Z,5.15
2022-08-03T10:36:23.663Z,6.57
2022-08-03T10:38:55.138Z,5.50
2022-08-03T10:41:23.601Z,5.65
2022-08-03T10:44:11.075Z,5.30
2022-08-03T10:46:44.314Z,6.30
2022-08-03T10:49:35.204Z,5.45
2022-08-03T10:52:12.932Z,5.70
2022-08-03T10:55:00.574Z,4.90
2022-08-03T10:57:58.531Z,5.03
2022-08-03T11:00:27.085Z,5.28
2022-08-03T11:03:07.318Z,5.63
2022-08-03T11:05:39.852Z,5.32
2022-08-03T11:08:20.522Z,5.20
2022-08-03T11:10:48.181Z,5.20
2022-08-03T11:13:20.213Z,4.95
2022-08-03T11:15:49.474Z,4.70
2022-08-03T11:18:15.990Z,5.15
2022-08-03T11:20:54.491Z,5.15
2022-08-03T11:24:04.914Z,4.57
2022-08-03T11:26:28.565Z,4.75
2022-08-03T11:29:27.523Z,5.57
2022-08-03T11:31:53.977Z,4.35
2022-08-03T11:34:20.469Z,5.18
2022-08-03T11:37:22.997Z,5.43
2022-08-03T11:39:52.970Z,5.05
2022-08-03T11:42:22.433Z,4.47
2022-08-03T11:44:53.192Z,4.30
2022-08-03T11:47:24.459Z,5.13
2022-08-03T11:49:53.856Z,4.60
2022-08-03T11:52:26.947Z,5.07
2022-08-03T11:54:57.085Z,4.35
2022-08-03T11:59:00.850Z,4.78
2022-08-03T12:00:26.234Z,4.60
2022-08-03T12:03:20.242Z,4.80
2022-08-03T12:05:51.562Z,4.85
2022-08-03T12:08:33.317Z,5.10
2022-08-03T12:11:02.027Z,4.50
2022-08-03T12:14:44.868Z,4.75
2022-08-03T12:16:28.695Z,4.83
2022-08-03T12:19:04.989Z,4.85
2022-08-03T12:21:31.520Z,4.10
2022-08-03T12:24:00.295Z,4.50
2022-08-03T12:26:27.888Z,4.63
2022-08-03T12:28:54.323Z,4.05
2022-08-03T12:31:20.800Z,4.15
2022-08-03T12:34:05.093Z,3.50
2022-08-03T12:36:34.191Z,3.22
2022-08-03T12:39:06.025Z,4.90
2022-08-03T12:41:35.292Z,4.00
2022-08-03T12:44:06.198Z,4.63
2022-08-03T12:46:47.521Z,4.35
2022-08-03T12:49:17.844Z,4.93
2022-08-03T12:51:44.249Z,3.97
2022-08-03T12:54:17.902Z,3.95
2022-08-03T12:57:06.893Z,3.30
2022-08-03T12:59:40.434Z,3.78
2022-08-03T13:02:24.143Z,4.07
2022-08-03T13:04:52.990Z,3.35
2022-08-03T13:07:20.366Z,4.28
2022-08-03T13:09:49.081Z,4.00
2022-08-03T13:12:18.009Z,3.60
2022-08-03T13:14:46.777Z,3.85
2022-08-03T13:17:13.387Z,3.22
2022-08-03T13:19:40.399Z,3.50
2022-08-03T13:22:18.844Z,3.90
2022-08-03T13:24:46.967Z,3.72
2022-08-03T13:28:01.070Z,3.40
2022-08-03T13:30:00.601Z,3.88
2022-08-03T13:32:27.080Z,3.55
2022-08-03T13:34:53.530Z,3.63
2022-08-03T13:37:20.249Z,3.30
2022-08-03T13:39:57.645Z,3.63
2022-08-03T13:42:28.501Z,3.45
2022-08-03T13:44:54.917Z,3.40
2022-08-03T13:47:21.777Z,3.35
2022-08-03T13:49:59.779Z,3.15
2022-08-03T13:52:29.204Z,3.58
2022-08-03T13:54:55.566Z,3.05
2022-08-03T13:58:04.544Z,3.17
2022-08-03T14:00:09.212Z,2.97
2022-08-03T14:02:35.864Z,3.10
2022-08-03T14:05:02.321Z,2.60
2022-08-03T14:07:28.772Z,3.03
2022-08-03T14:09:55.170Z,2.60
2022-08-03T14:12:21.576Z,2.88
2022-08-03T14:14:47.992Z,3.10
2022-08-03T14:17:16.322Z,3.22
2022-08-03T14:19:52.584Z,2.75
2022-08-03T14:22:20.885Z,2.92
2022-08-03T14:24:47.305Z,2.90
2022-08-03T14:27:13.697Z,2.83
2022-08-03T14:29:40.083Z,3.10
2022-08-03T14:32:09.449Z,2.72
2022-08-03T14:34:37.024Z,3.15
2022-08-03T14:37:03.424Z,2.75
2022-08-03T14:39:58.336Z,3.13
2022-08-03T14:42:16.603Z,2.95
2022-08-03T14:44:43.059Z,2.88
2022-08-03T14:47:09.484Z,2.65
2022-08-03T14:50:36.115Z,2.70
2022-08-03T14:52:22.753Z,3.17
2022-08-03T14:54:49.100Z,3.22
2022-08-03T14:57:15.467Z,2.92
2022-08-03T14:59:56.151Z,3.22
2022-08-03T15:02:24.208Z,3.20
2022-08-03T15:04:50.903Z,3.00
2022-08-03T15:07:17.483Z,2.78
2022-08-03T15:09:44.009Z,2.63
2022-08-03T15:12:10.536Z,3.10
2022-08-03T15:14:37.836Z,3.15
2022-08-03T15:17:04.658Z,3.42
2022-08-03T15:20:01.172Z,3.65
2022-08-03T15:22:20.703Z,3.08
2022-08-03T15:24:52.246Z,2.85
2022-08-03T15:27:19.090Z,3.33
2022-08-03T15:30:07.793Z,3.30
2022-08-03T15:32:33.581Z,3.08
2022-08-03T15:35:00.615Z,2.90
2022-08-03T15:37:27.918Z,2.88
2022-08-03T15:39:59.090Z,3.13
2022-08-03T15:42:30.975Z,3.15
2022-08-03T15:44:57.402Z,3.00
2022-08-03T15:47:23.893Z,3.00
2022-08-03T15:49:50.252Z,2.95
2022-08-03T15:52:16.733Z,2.90
2022-08-03T15:54:43.134Z,2.90
2022-08-03T15:57:09.584Z,3.08
2022-08-03T15:59:36.296Z,2.80
2022-08-03T16:02:02.989Z,2.72
2022-08-03T16:04:29.497Z,3.00
2022-08-03T16:06:55.892Z,3.08
2022-08-03T16:09:23.369Z,3.03
2022-08-03T16:12:15.549Z,3.00
2022-08-03T16:14:51.943Z,2.70
2022-08-03T16:17:20.366Z,3.13
2022-08-03T16:19:46.977Z,3.35
2022-08-03T16:22:14.323Z,2.72
2022-08-03T16:24:41.070Z,2.70
2022-08-03T16:27:07.915Z,3.13
2022-08-03T16:29:44.255Z,3.10
2022-08-03T16:32:10.988Z,2.88
2022-08-03T16:34:38.286Z,2.83
2022-08-03T16:37:35.404Z,3.20
2022-08-03T16:39:52.287Z,2.88
2022-08-03T16:42:18.874Z,3.23
2022-08-03T16:44:45.314Z,3.17
2022-08-03T16:47:22.267Z,3.10
2022-08-03T16:49:55.467Z,2.90
2022-08-03T16:52:23.123Z,2.90
2022-08-03T16:54:52.577Z,2.60
2022-08-03T16:57:55.886Z,3.28
2022-08-03T17:00:07.736Z,3.10
2022-08-03T17:02:35.269Z,2.75
2022-08-03T17:05:03.212Z,3.15
2022-08-03T17:07:30.399Z,3.00
2022-08-03T17:09:57.642Z,2.90
2022-08-03T17:12:26.913Z,3.05
2022-08-03T17:14:54.043Z,2.55
2022-08-03T17:17:47.495Z,2.80
2022-08-03T17:20:21.452Z,2.90
2022-08-03T17:23:02.916Z,2.90
2022-08-03T17:25:39.693Z,2.70
2022-08-03T17:28:48.392Z,3.03
2022-08-03T17:31:23.591Z,2.90
2022-08-03T17:34:00.717Z,3.33
2022-08-03T17:36:47.508Z,2.95
2022-08-03T17:39:16.603Z,2.42
2022-08-03T17:41:50.072Z,2.70
2022-08-03T17:44:33.028Z,2.67
2022-08-03T17:47:04.738Z,2.83
2022-08-03T17:49:33.044Z,2.97
2022-08-03T17:52:17.632Z,3.05
2022-08-03T17:55:57.481Z,3.80
2022-08-03T17:58:05.905Z,3.75
2022-08-03T18:00:52.251Z,3.53
2022-08-03T18:03:57.018Z,4.30
2022-08-03T18:06:28.873Z,3.83
2022-08-03T18:08:58.170Z,3.33
2022-08-03T18:11:35.569Z,3.45
2022-08-03T18:14:24.825Z,3.40
2022-08-03T18:17:01.859Z,3.53
2022-08-03T18:20:01.896Z,4.07
2022-08-03T18:22:19.765Z,3.88
2022-08-03T18:24:49.861Z,3.80
2022-08-03T18:27:17.098Z,3.43
2022-08-03T18:29:46.559Z,3.35
2022-08-03T18:32:16.977Z,4.07
2022-08-03T18:34:53.454Z,3.80
2022-08-03T18:37:25.150Z,3.42
2022-08-03T18:39:55.643Z,4.20
2022-08-03T18:42:26.021Z,4.70
2022-08-03T18:44:56.250Z,4.93
2022-08-03T18:47:51.792Z,5.50
2022-08-03T18:50:28.267Z,4.70
2022-08-03T18:53:19.793Z,4.60
2022-08-03T18:56:01.879Z,4.00
2022-08-03T18:58:38.772Z,3.72
2022-08-03T19:01:59.641Z,3.67
2022-08-03T19:04:12.556Z,3.17
2022-08-03T19:06:44.745Z,3.80
2022-08-03T19:09:28.046Z,3.75
2022-08-03T19:12:13.364Z,3.65
2022-08-03T19:14:52.366Z,4.45
2022-08-03T19:17:21.852Z,5.00
2022-08-03T19:19:54.501Z,4.47
2022-08-03T19:22:21.401Z,4.10
2022-08-03T19:24:52.078Z,4.32
2022-08-03T19:27:27.012Z,4.70
2022-08-03T19:29:58.384Z,8.50
2022-08-03T19:32:31.030Z,15.30
2022-08-03T19:35:00.288Z,16.40
2022-08-03T19:37:33.171Z,17.70
2022-08-03T19:40:10.277Z,16.42
2022-08-03T19:42:42.421Z,16.75
2022-08-03T19:45:14.165Z,15.13
2022-08-03T19:47:56.119Z,15.98
2022-08-03T19:50:24.357Z,13.32
2022-08-03T19:52:51.711Z,11.75
2022-08-03T19:55:18.541Z,11.32
2022-08-03T19:57:49.172Z,11.67
2022-08-03T20:00:19.347Z,11.05
2022-08-03T20:02:46.087Z,10.77
2022-08-03T20:05:15.216Z,9.93
2022-08-03T20:07:42.580Z,8.70
2022-08-03T20:10:15.335Z,7.93
2022-08-03T20:12:46.991Z,8.13
2022-08-03T20:15:13.597Z,7.35
2022-08-03T20:17:56.854Z,6.63
2022-08-03T20:20:36.028Z,7.25
2022-08-03T20:23:17.388Z,6.82
2022-08-03T20:25:58.534Z,7.15
2022-08-03T20:28:49.656Z,6.95
2022-08-03T20:31:18.310Z,7.07
2022-08-03T20:33:46.680Z,7.20
2022-08-03T20:36:18.019Z,7.50
2022-08-03T20:38:47.094Z,7.28
2022-08-03T20:41:14.116Z,7.35
2022-08-03T20:43:41.393Z,7.40
2022-08-03T20:46:31.015Z,8.20
2022-08-03T20:48:55.152Z,7.20
2022-08-03T20:51:50.721Z,8.00
2022-08-03T20:54:29.644Z,7.18
2022-08-03T20:56:56.620Z,7.18
2022-08-03T20:59:24.418Z,7.00
2022-08-03T21:01:50.851Z,7.13
2022-08-03T21:04:21.114Z,7.22
2022-08-03T21:06:58.248Z,7.60
2022-08-03T21:09:33.321Z,7.60
2022-08-03T21:12:12.683Z,7.85
2022-08-03T21:15:05.364Z,8.40
2022-08-03T21:17:41.604Z,8.23
2022-08-03T21:20:10.670Z,8.52
2022-08-03T21:22:38.180Z,8.77
2022-08-03T21:25:08.481Z,9.23
2022-08-03T21:27:36.584Z,9.37
2022-08-03T21:30:07.103Z,10.25
2022-08-03T21:32:33.986Z,10.32
2022-08-03T21:35:01.219Z,10.10
2022-08-03T21:37:28.947Z,10.75
2022-08-03T21:39:56.382Z,11.05
2022-08-03T21:42:26.006Z,10.10
2022-08-03T21:44:53.575Z,10.40
2022-08-03T21:47:22.636Z,10.48
2022-08-03T21:50:06.306Z,10.45
2022-08-03T21:52:46.055Z,9.80
2022-08-03T21:55:20.450Z,10.32
2022-08-03T21:57:52.347Z,10.10
2022-08-03T22:00:21.767Z,10.10
2022-08-03T22:02:54.505Z,9.98
2022-08-03T22:05:28.946Z,9.90
2022-08-03T22:08:09.784Z,10.30
2022-08-03T22:10:36.794Z,10.70
2022-08-03T22:13:03.496Z,10.35
2022-08-03T22:15:30.613Z,10.60
2022-08-03T22:17:57.531Z,10.10
2022-08-03T22:20:24.577Z,10.15
2022-08-03T22:22:55.957Z,10.32
2022-08-03T22:25:28.512Z,10.15
2022-08-03T22:27:55.345Z,9.93
2022-08-03T22:30:21.786Z,10.70
2022-08-03T22:32:51.831Z,10.32
2022-08-03T22:35:20.271Z,9.93
2022-08-03T22:37:49.474Z,10.27
2022-08-03T22:40:16.658Z,9.98
2022-08-03T22:42:46.055Z,9.27
2022-08-03T22:46:07.356Z,9.18
2022-08-03T22:48:00.336Z,8.85
2022-08-03T22:50:31.234Z,8.23
2022-08-03T22:53:00.100Z,8.45
2022-08-03T22:55:27.457Z,8.10
2022-08-03T22:57:56.225Z,8.80
2022-08-03T23:00:23.705Z,8.05
2022-08-03T23:02:51.435Z,8.25
2022-08-03T23:06:00.841Z,7.70
2022-08-03T23:08:14.301Z,7.70
2022-08-03T23:10:46.674Z,7.47
2022-08-03T23:13:16.360Z,7.55
2022-08-03T23:15:50.648Z,7.75
2022-08-03T23:18:19.417Z,8.07
2022-08-03T23:20:49.001Z,7.60
2022-08-03T23:23:16.641Z,8.10
2022-08-03T23:25:49.246Z,7.78
2022-08-03T23:28:16.335Z,7.95
2022-08-03T23:30:44.325Z,7.68
2022-08-03T23:33:14.687Z,7.53
2022-08-03T23:36:20.090Z,7.60
2022-08-03T23:38:43.901Z,8.13
2022-08-03T23:41:10.451Z,7.45
2022-08-03T23:43:53.571Z,8.05
2022-08-03T23:46:22.459Z,8.23
2022-08-03T23:48:50.181Z,7.95
2022-08-03T23:51:51.093Z,8.02
2022-08-03T23:54:29.516Z,7.38
2022-08-03T23:57:22.975Z,7.25
